Time;durP1;ratioP1;P1;durP2;ratioP2;P2;SDS_P1;SDS_P2;PMS_P1;PMS_P2;Temp;Humidity;BMP_temperature;BMP_pressure;BME280_temperature;BME280_humidity;BME280_pressure;Samples;Min_cycle;Max_cycle;Signal;HPM_P1;HPM_P2
2023/10/18 00:00:57;;;;;;;4.85;4.30;;;;;;;;;;5077936;28;20209;-85
2023/10/18 00:03:26;;;;;;;4.90;4.10;;;;;;;;;;5077281;28;20601;-85
2023/10/18 00:05:53;;;;;;;4.72;4.32;;;;;;;;;;5078082;28;20209;-85
2023/10/18 00:08:22;;;;;;;6.28;4.68;;;;;;;;;;5077547;28;20304;-85
2023/10/18 00:10:53;;;;;;;6.15;5.57;;;;;;;;;;5077625;28;20295;-86
2023/10/18 00:13:23;;;;;;;5.93;5.10;;;;;;;;;;5077204;28;20221;-85
2023/10/18 00:15:52;;;;;;;5.05;4.55;;;;;;;;;;5077534;28;20542;-85
2023/10/18 00:18:20;;;;;;;5.95;5.00;;;;;;;;;;5077304;28;20201;-85
2023/10/18 00:20:48;;;;;;;5.70;5.03;;;;;;;;;;5078585;28;20207;-85
2023/10/18 00:23:15;;;;;;;5.30;4.78;;;;;;;;;;5077937;28;20224;-85
2023/10/18 00:25:43;;;;;;;5.78;4.85;;;;;;;;;;5078784;28;20193;-85
2023/10/18 00:28:10;;;;;;;6.05;5.45;;;;;;;;;;5078564;28;20257;-85
2023/10/18 00:30:39;;;;;;;5.63;5.03;;;;;;;;;;5078531;28;20580;-85
2023/10/18 00:33:07;;;;;;;5.15;4.60;;;;;;;;;;5078379;28;20232;-85
2023/10/18 00:35:36;;;;;;;5.57;5.07;;;;;;;;;;5078504;28;20234;-86
2023/10/18 00:38:04;;;;;;;6.18;5.55;;;;;;;;;;5081784;28;20211;-85
2023/10/18 00:40:36;;;;;;;5.82;5.20;;;;;;;;;;5088585;28;20723;-85
2023/10/18 00:43:07;;;;;;;5.65;5.15;;;;;;;;;;5096469;28;20248;-85
2023/10/18 00:45:38;;;;;;;6.90;6.05;;;;;;;;;;5097565;28;20205;-85
2023/10/18 00:48:07;;;;;;;5.28;4.72;;;;;;;;;;5100565;28;20200;-85
2023/10/18 00:50:37;;;;;;;5.75;5.10;;;;;;;;;;5096776;28;20200;-85
2023/10/18 00:53:06;;;;;;;6.40;5.03;;;;;;;;;;5096328;28;20206;-85
2023/10/18 00:55:34;;;;;;;6.28;5.63;;;;;;;;;;5096818;28;20198;-85
2023/10/18 00:58:05;;;;;;;6.00;5.40;;;;;;;;;;5097093;28;20276;-85
2023/10/18 01:00:33;;;;;;;5.95;5.32;;;;;;;;;;5096836;28;20208;-86
2023/10/18 01:03:06;;;;;;;6.75;6.05;;;;;;;;;;5095911;28;20701;-85
2023/10/18 01:05:35;;;;;;;6.07;5.47;;;;;;;;;;5096947;28;20246;-85
2023/10/18 01:08:06;;;;;;;6.45;5.60;;;;;;;;;;5096515;28;20207;-85
2023/10/18 01:10:37;;;;;;;7.22;5.75;;;;;;;;;;5095758;28;20718;-85
2023/10/18 01:13:06;;;;;;;5.60;5.03;;;;;;;;;;5095819;28;20649;-85
2023/10/18 01:15:34;;;;;;;6.18;5.68;;;;;;;;;;5095871;28;20207;-85
2023/10/18 01:18:02;;;;;;;6.07;5.45;;;;;;;;;;5096599;28;20211;-86
2023/10/18 01:20:38;;;;;;;8.95;6.45;;;;;;;;;;5095846;28;20200;-85
2023/10/18 01:23:09;;;;;;;6.15;5.50;;;;;;;;;;5095693;28;20769;-85
2023/10/18 01:25:38;;;;;;;5.65;5.15;;;;;;;;;;5096200;28;20204;-85
2023/10/18 01:28:06;;;;;;;6.13;5.53;;;;;;;;;;5095953;28;20192;-85
2023/10/18 01:30:34;;;;;;;7.70;6.05;;;;;;;;;;5096199;28;20215;-85
2023/10/18 01:33:04;;;;;;;5.90;5.32;;;;;;;;;;5095306;28;20215;-85
2023/10/18 01:35:32;;;;;;;7.65;5.70;;;;;;;;;;5095964;28;20222;-85
2023/10/18 01:38:04;;;;;;;6.60;5.97;;;;;;;;;;5095757;28;20200;-87
2023/10/18 01:40:41;;;;;;;6.93;6.28;;;;;;;;;;5100672;28;20618;-85
2023/10/18 01:43:11;;;;;;;6.70;6.10;;;;;;;;;;5102530;28;20251;-85
2023/10/18 01:45:39;;;;;;;7.00;6.03;;;;;;;;;;5112076;28;20259;-85
2023/10/18 01:48:10;;;;;;;6.25;5.63;;;;;;;;;;5112046;28;20204;-86
2023/10/18 01:50:39;;;;;;;6.93;6.32;;;;;;;;;;5110777;28;20232;-86
2023/10/18 01:53:15;;;;;;;6.75;5.97;;;;;;;;;;5098956;28;20196;-87
2023/10/18 01:55:45;;;;;;;6.57;5.88;;;;;;;;;;5099411;28;20204;-86
2023/10/18 01:58:14;;;;;;;8.18;6.18;;;;;;;;;;5098392;28;20211;-86
2023/10/18 02:00:46;;;;;;;6.95;6.10;;;;;;;;;;5098601;28;20215;-86
2023/10/18 02:03:13;;;;;;;6.82;6.13;;;;;;;;;;5096712;28;20229;-87
2023/10/18 02:05:43;;;;;;;7.18;6.47;;;;;;;;;;5098615;28;20670;-86
2023/10/18 02:08:11;;;;;;;7.35;6.07;;;;;;;;;;5098204;28;20200;-85
2023/10/18 02:10:42;;;;;;;7.53;6.00;;;;;;;;;;5096215;28;20212;-85
2023/10/18 02:13:11;;;;;;;6.53;5.70;;;;;;;;;;5094756;28;20204;-86
2023/10/18 02:15:40;;;;;;;7.32;6.63;;;;;;;;;;5108225;28;20754;-86
2023/10/18 02:18:08;;;;;;;6.15;5.55;;;;;;;;;;5118591;28;20200;-86
2023/10/18 02:20:37;;;;;;;6.53;5.93;;;;;;;;;;5118827;28;20215;-85
2023/10/18 02:23:11;;;;;;;6.47;5.82;;;;;;;;;;5118380;28;20204;-85
2023/10/18 02:25:44;;;;;;;5.90;5.30;;;;;;;;;;5118517;28;20196;-85
2023/10/18 02:28:23;;;;;;;5.70;5.18;;;;;;;;;;5118377;28;20219;-85
2023/10/18 02:30:57;;;;;;;9.02;7.30;;;;;;;;;;5118574;28;20195;-85
2023/10/18 02:33:33;;;;;;;6.88;6.15;;;;;;;;;;5118297;28;20204;-85
2023/10/18 02:36:01;;;;;;;7.07;6.38;;;;;;;;;;5118730;28;20188;-85
2023/10/18 02:38:32;;;;;;;6.80;6.20;;;;;;;;;;5115130;28;20215;-85
2023/10/18 02:41:14;;;;;;;7.63;6.88;;;;;;;;;;5099620;28;20205;-85
2023/10/18 02:43:45;;;;;;;6.47;5.82;;;;;;;;;;5108689;28;20238;-85
2023/10/18 02:46:16;;;;;;;7.78;7.00;;;;;;;;;;5118233;28;20189;-84
2023/10/18 02:48:44;;;;;;;7.00;6.30;;;;;;;;;;5118121;28;20192;-85
2023/10/18 02:51:12;;;;;;;7.03;6.35;;;;;;;;;;5118126;28;20255;-85
2023/10/18 02:53:41;;;;;;;9.48;7.88;;;;;;;;;;5118017;28;20196;-85
2023/10/18 02:56:17;;;;;;;7.40;6.60;;;;;;;;;;5118203;28;20196;-86
2023/10/18 02:58:46;;;;;;;7.63;6.85;;;;;;;;;;5118162;28;20164;-85
2023/10/18 03:01:18;;;;;;;7.75;6.95;;;;;;;;;;5116260;28;20210;-85
2023/10/18 03:03:49;;;;;;;9.57;7.57;;;;;;;;;;5094596;28;20240;-85
2023/10/18 03:06:17;;;;;;;8.05;7.15;;;;;;;;;;5095160;28;20193;-86
2023/10/18 03:08:49;;;;;;;7.78;6.80;;;;;;;;;;5092619;28;20832;-87
2023/10/18 03:11:17;;;;;;;8.95;7.47;;;;;;;;;;5084018;28;20219;-86
2023/10/18 03:13:46;;;;;;;6.25;5.65;;;;;;;;;;5092044;28;20220;-86
2023/10/18 03:16:27;;;;;;;7.53;6.82;;;;;;;;;;5095859;28;20235;-85
2023/10/18 03:18:59;;;;;;;7.25;6.60;;;;;;;;;;5096050;28;20193;-86
2023/10/18 03:21:32;;;;;;;7.57;6.80;;;;;;;;;;5095839;28;20205;-85
2023/10/18 03:24:00;;;;;;;5.55;5.05;;;;;;;;;;5095183;28;20228;-84
2023/10/18 03:26:35;;;;;;;6.90;6.05;;;;;;;;;;5095300;28;20208;-86
2023/10/18 03:29:05;;;;;;;7.80;6.75;;;;;;;;;;5095427;28;20197;-86
2023/10/18 03:31:35;;;;;;;7.38;6.50;;;;;;;;;;5093965;28;20184;-86
2023/10/18 03:34:04;;;;;;;6.80;6.20;;;;;;;;;;5094890;28;20243;-86
2023/10/18 03:36:33;;;;;;;6.88;6.25;;;;;;;;;;5095301;28;20268;-85
2023/10/18 03:39:11;;;;;;;7.15;6.45;;;;;;;;;;5095211;28;20271;-86
2023/10/18 03:41:41;;;;;;;7.25;6.07;;;;;;;;;;5097340;28;20299;-85
2023/10/18 03:44:09;;;;;;;7.07;6.45;;;;;;;;;;5094612;28;20251;-85
2023/10/18 03:46:48;;;;;;;7.50;6.70;;;;;;;;;;5095621;28;20310;-84
2023/10/18 03:49:22;;;;;;;6.55;5.95;;;;;;;;;;5093505;28;20201;-84
2023/10/18 03:51:54;;;;;;;7.40;5.82;;;;;;;;;;5095314;28;20238;-85
2023/10/18 03:54:23;;;;;;;7.50;6.78;;;;;;;;;;5094573;28;20228;-85
2023/10/18 03:56:53;;;;;;;6.78;6.18;;;;;;;;;;5094762;28;20193;-85
2023/10/18 03:59:21;;;;;;;7.20;6.47;;;;;;;;;;5094501;28;20614;-86
2023/10/18 04:02:07;;;;;;;7.65;6.72;;;;;;;;;;5099797;28;20201;-85
2023/10/18 04:04:36;;;;;;;7.45;6.50;;;;;;;;;;5098360;28;20233;-85
2023/10/18 04:07:13;;;;;;;6.80;6.05;;;;;;;;;;5097246;28;20211;-85
2023/10/18 04:09:46;;;;;;;7.35;6.03;;;;;;;;;;5097014;28;20192;-85
2023/10/18 04:12:17;;;;;;;6.95;6.15;;;;;;;;;;5086099;28;20216;-87
2023/10/18 04:14:53;;;;;;;6.55;5.47;;;;;;;;;;5085553;28;20213;-86
2023/10/18 04:17:36;;;;;;;5.55;4.80;;;;;;;;;;5081969;28;20204;-87
2023/10/18 04:20:22;;;;;;;7.75;5.75;;;;;;;;;;5081945;28;20659;-87
2023/10/18 04:22:50;;;;;;;6.18;5.55;;;;;;;;;;5081500;28;20204;-87
2023/10/18 04:25:25;;;;;;;6.28;5.68;;;;;;;;;;5081209;28;20248;-87
2023/10/18 04:27:53;;;;;;;6.93;5.88;;;;;;;;;;5082434;28;20200;-87
2023/10/18 04:30:22;;;;;;;7.15;6.28;;;;;;;;;;5082635;28;20638;-87
2023/10/18 04:32:54;;;;;;;8.20;6.68;;;;;;;;;;5081492;28;20239;-87
2023/10/18 04:35:29;;;;;;;7.03;6.28;;;;;;;;;;5081484;28;20270;-87
2023/10/18 04:37:56;;;;;;;7.57;6.18;;;;;;;;;;5082508;28;20201;-87
2023/10/18 04:40:25;;;;;;;7.60;6.90;;;;;;;;;;5081653;28;20201;-86
2023/10/18 04:42:55;;;;;;;7.22;6.55;;;;;;;;;;5082297;28;20205;-86
2023/10/18 04:45:24;;;;;;;7.32;6.50;;;;;;;;;;5081462;28;20263;-86
2023/10/18 04:48:06;;;;;;;7.10;6.40;;;;;;;;;;5081391;28;20211;-87
2023/10/18 04:50:33;;;;;;;6.28;5.68;;;;;;;;;;5081270;28;20201;-87
2023/10/18 04:53:04;;;;;;;9.02;7.90;;;;;;;;;;5082382;28;20197;-87
2023/10/18 04:55:32;;;;;;;7.07;6.40;;;;;;;;;;5080418;28;20205;-87
2023/10/18 04:58:00;;;;;;;7.20;6.50;;;;;;;;;;5080653;28;20232;-87
2023/10/18 05:00:35;;;;;;;8.88;7.35;;;;;;;;;;5081585;28;20228;-86
2023/10/18 05:03:13;;;;;;;9.43;7.53;;;;;;;;;;5080329;28;20635;-87
2023/10/18 05:05:44;;;;;;;7.20;6.18;;;;;;;;;;5080891;28;20224;-87
2023/10/18 05:08:16;;;;;;;7.32;6.35;;;;;;;;;;5081018;28;20204;-87
2023/10/18 05:10:45;;;;;;;8.90;7.72;;;;;;;;;;5080451;28;20624;-87
2023/10/18 05:13:23;;;;;;;8.65;7.78;;;;;;;;;;5079776;28;20252;-86
2023/10/18 05:15:51;;;;;;;6.95;6.25;;;;;;;;;;5079629;28;20207;-86
2023/10/18 05:18:23;;;;;;;7.72;6.50;;;;;;;;;;5080079;28;20207;-87
2023/10/18 05:20:57;;;;;;;6.80;6.05;;;;;;;;;;5079358;28;20181;-86
2023/10/18 05:23:26;;;;;;;8.25;7.10;;;;;;;;;;5079140;28;20209;-86
2023/10/18 05:26:03;;;;;;;6.78;5.80;;;;;;;;;;5078969;28;20716;-86
2023/10/18 05:28:42;;;;;;;9.35;7.45;;;;;;;;;;5079497;28;20261;-86
2023/10/18 05:34:22;;;;;;;7.07;6.38;;;;;;;;;;5078090;28;20220;-87
2023/10/18 05:36:56;;;;;;;8.10;7.13;;;;;;;;;;5079283;28;20292;-86
2023/10/18 05:39:28;;;;;;;10.00;8.10;;;;;;;;;;5079153;28;20651;-86
2023/10/18 05:42:03;;;;;;;8.05;7.28;;;;;;;;;;5079285;28;20228;-86
2023/10/18 05:44:31;;;;;;;7.68;6.88;;;;;;;;;;5079130;28;20731;-86
2023/10/18 05:46:57;;;;;;;7.80;7.03;;;;;;;;;;5079416;28;20312;-86
2023/10/18 05:49:28;;;;;;;9.35;8.15;;;;;;;;;;5078785;28;20208;-86
2023/10/18 05:52:15;;;;;;;6.90;6.30;;;;;;;;;;5079549;28;20209;-86
2023/10/18 05:54:44;;;;;;;7.40;6.60;;;;;;;;;;5078580;28;20224;-87
2023/10/18 05:57:16;;;;;;;9.48;8.48;;;;;;;;;;5078623;28;20211;-86
2023/10/18 05:59:46;;;;;;;9.20;8.18;;;;;;;;;;5078631;28;20235;-87
2023/10/18 06:02:22;;;;;;;10.48;9.10;;;;;;;;;;5094086;28;20192;-86
2023/10/18 06:04:55;;;;;;;9.43;8.32;;;;;;;;;;5098481;28;20222;-87
2023/10/18 06:07:24;;;;;;;10.77;8.55;;;;;;;;;;5098846;28;20662;-86
2023/10/18 06:09:57;;;;;;;9.82;8.82;;;;;;;;;;5098648;28;20199;-86
2023/10/18 06:12:27;;;;;;;11.70;9.25;;;;;;;;;;5098180;28;20307;-87
2023/10/18 06:14:57;;;;;;;10.02;8.82;;;;;;;;;;5095689;28;20242;-86
2023/10/18 06:17:42;;;;;;;8.80;7.90;;;;;;;;;;5096819;28;20658;-87
2023/10/18 06:20:24;;;;;;;11.05;9.60;;;;;;;;;;5083758;28;20209;-87
2023/10/18 06:22:53;;;;;;;9.35;8.38;;;;;;;;;;5077808;28;20247;-86
2023/10/18 06:25:26;;;;;;;7.10;6.35;;;;;;;;;;5078304;28;20223;-86
2023/10/18 06:27:54;;;;;;;9.95;7.78;;;;;;;;;;5077997;28;20205;-89
2023/10/18 06:30:24;;;;;;;9.48;8.13;;;;;;;;;;5078555;28;20204;-87
2023/10/18 06:32:52;;;;;;;10.45;8.00;;;;;;;;;;5077511;28;20649;-87
2023/10/18 06:35:26;;;;;;;8.50;7.60;;;;;;;;;;5077082;28;20233;-87
2023/10/18 06:37:54;;;;;;;9.10;8.10;;;;;;;;;;5077472;28;20196;-87
2023/10/18 06:40:22;;;;;;;8.93;8.05;;;;;;;;;;5077833;28;20197;-87
2023/10/18 06:42:50;;;;;;;8.57;7.65;;;;;;;;;;5077541;28;20203;-87
2023/10/18 06:45:19;;;;;;;9.10;8.07;;;;;;;;;;5077121;28;20318;-87
2023/10/18 06:47:46;;;;;;;7.78;6.97;;;;;;;;;;5088563;28;20679;-87
2023/10/18 06:50:19;;;;;;;8.85;7.32;;;;;;;;;;5097297;28;20197;-87
2023/10/18 06:52:53;;;;;;;8.48;7.18;;;;;;;;;;5097713;28;20203;-87
2023/10/18 06:55:27;;;;;;;8.88;6.90;;;;;;;;;;5098061;28;20228;-87
2023/10/18 06:58:11;;;;;;;5.20;4.70;;;;;;;;;;5097839;28;20295;-87
2023/10/18 07:00:43;;;;;;;7.65;6.88;;;;;;;;;;5098310;28;20253;-87
2023/10/18 07:03:16;;;;;;;6.60;6.00;;;;;;;;;;5097708;28;20286;-86
2023/10/18 07:05:49;;;;;;;6.95;5.90;;;;;;;;;;5098083;28;20198;-87
2023/10/18 07:08:20;;;;;;;7.03;6.10;;;;;;;;;;5098430;28;20690;-87
2023/10/18 07:10:54;;;;;;;5.72;5.22;;;;;;;;;;5097253;28;20242;-87
2023/10/18 07:13:33;;;;;;;5.60;4.97;;;;;;;;;;5099115;28;20224;-86
2023/10/18 07:16:05;;;;;;;7.13;6.43;;;;;;;;;;5108948;28;20208;-84
2023/10/18 07:18:35;;;;;;;6.55;5.93;;;;;;;;;;5112339;28;20208;-85
2023/10/18 07:21:07;;;;;;;6.97;6.30;;;;;;;;;;5112906;28;20193;-85
2023/10/18 07:23:37;;;;;;;6.47;5.70;;;;;;;;;;5101144;28;20216;-87
2023/10/18 07:26:07;;;;;;;7.88;7.20;;;;;;;;;;5098627;28;20685;-87
2023/10/18 07:28:36;;;;;;;9.30;8.38;;;;;;;;;;5097971;28;20199;-87
2023/10/18 07:31:09;;;;;;;7.30;6.53;;;;;;;;;;5098073;28;20228;-87
2023/10/18 07:33:40;;;;;;;6.22;5.22;;;;;;;;;;5097372;28;20315;-87
2023/10/18 07:36:09;;;;;;;5.22;4.72;;;;;;;;;;5097417;28;20246;-87
2023/10/18 07:38:46;;;;;;;6.93;6.22;;;;;;;;;;5098044;28;20207;-87
2023/10/18 07:41:14;;;;;;;6.13;5.53;;;;;;;;;;5098322;28;20286;-87
2023/10/18 07:43:44;;;;;;;8.10;6.88;;;;;;;;;;5095626;28;20222;-86
2023/10/18 07:46:16;;;;;;;6.78;6.07;;;;;;;;;;5097770;28;20220;-87
2023/10/18 07:48:47;;;;;;;6.53;5.88;;;;;;;;;;5089518;28;20223;-87
2023/10/18 07:51:24;;;;;;;6.90;6.22;;;;;;;;;;5102113;28;20219;-87
2023/10/18 07:53:54;;;;;;;8.38;7.07;;;;;;;;;;5101337;28;20223;-87
2023/10/18 07:56:27;;;;;;;6.32;5.72;;;;;;;;;;5101264;28;20273;-87
2023/10/18 07:58:55;;;;;;;7.13;6.10;;;;;;;;;;5102113;28;20196;-87
2023/10/18 08:01:47;;;;;;;7.57;6.72;;;;;;;;;;5101598;28;20661;-87
2023/10/18 08:04:17;;;;;;;6.68;5.70;;;;;;;;;;5101305;28;20223;-87
2023/10/18 08:06:45;;;;;;;6.32;5.72;;;;;;;;;;5102082;28;20234;-87
2023/10/18 08:09:16;;;;;;;5.57;5.10;;;;;;;;;;5100909;28;20192;-87
2023/10/18 08:11:46;;;;;;;6.53;5.82;;;;;;;;;;5100971;28;20299;-87
2023/10/18 08:14:18;;;;;;;10.20;8.13;;;;;;;;;;5101056;28;20242;-87
2023/10/18 08:16:52;;;;;;;7.72;6.93;;;;;;;;;;5097608;28;20200;-87
2023/10/18 08:19:24;;;;;;;9.07;7.95;;;;;;;;;;5080847;28;20203;-86
2023/10/18 08:22:09;;;;;;;8.90;7.20;;;;;;;;;;5082497;28;20696;-87
2023/10/18 08:24:41;;;;;;;8.02;6.80;;;;;;;;;;5079717;28;20228;-86
2023/10/18 08:27:10;;;;;;;7.10;6.43;;;;;;;;;;5082883;28;20231;-87
2023/10/18 08:29:38;;;;;;;6.70;5.63;;;;;;;;;;5080789;28;20208;-86
2023/10/18 08:32:14;;;;;;;7.45;6.15;;;;;;;;;;5081355;28;20667;-86
2023/10/18 08:34:43;;;;;;;6.15;5.55;;;;;;;;;;5081351;28;20324;-86
2023/10/18 08:37:13;;;;;;;7.30;6.70;;;;;;;;;;5078796;28;20591;-86
2023/10/18 08:39:52;;;;;;;8.88;7.65;;;;;;;;;;5086078;28;20737;-86
2023/10/18 08:42:25;;;;;;;11.88;9.50;;;;;;;;;;5096772;28;20246;-86
2023/10/18 08:44:55;;;;;;;9.80;8.80;;;;;;;;;;5076472;28;20216;-86
2023/10/18 08:47:26;;;;;;;10.15;7.97;;;;;;;;;;5085287;28;20720;-85
2023/10/18 08:49:55;;;;;;;8.57;7.70;;;;;;;;;;5089746;28;20265;-86
2023/10/18 08:52:24;;;;;;;7.88;6.40;;;;;;;;;;5097437;28;20204;-85
2023/10/18 08:54:53;;;;;;;9.20;8.25;;;;;;;;;;5097246;28;20216;-86
2023/10/18 08:57:32;;;;;;;10.90;8.18;;;;;;;;;;5097963;28;20204;-85
2023/10/18 09:00:19;;;;;;;9.20;7.50;;;;;;;;;;5097407;28;20197;-86
2023/10/18 09:02:48;;;;;;;8.35;7.50;;;;;;;;;;5097775;28;20575;-86
2023/10/18 09:05:15;;;;;;;7.13;5.93;;;;;;;;;;5097615;28;20370;-86
2023/10/18 09:07:46;;;;;;;6.07;5.47;;;;;;;;;;5101718;28;20311;-86
2023/10/18 09:10:32;;;;;;;6.18;5.60;;;;;;;;;;5100242;28;20231;-87
2023/10/18 09:15:49;;;;;;;5.20;4.60;;;;;;;;;;5089129;28;20200;-87
2023/10/18 09:18:18;;;;;;;5.63;5.05;;;;;;;;;;5099071;28;20204;-86
2023/10/18 09:20:46;;;;;;;7.22;6.53;;;;;;;;;;5099770;28;20201;-87
2023/10/18 09:23:20;;;;;;;5.10;4.60;;;;;;;;;;5099741;28;20192;-87
2023/10/18 09:25:50;;;;;;;5.03;4.53;;;;;;;;;;5099933;28;20227;-87
2023/10/18 09:28:25;;;;;;;5.43;4.90;;;;;;;;;;5099620;28;20315;-87
2023/10/18 09:30:54;;;;;;;5.95;5.38;;;;;;;;;;5099014;28;20203;-86
2023/10/18 09:33:26;;;;;;;7.25;5.88;;;;;;;;;;5099201;28;20224;-87
2023/10/18 09:36:01;;;;;;;8.73;7.07;;;;;;;;;;5099287;28;20581;-87
2023/10/18 09:38:41;;;;;;;5.78;5.10;;;;;;;;;;5099215;28;20195;-85
2023/10/18 09:41:10;;;;;;;6.63;5.97;;;;;;;;;;5098173;28;20200;-86
2023/10/18 09:43:37;;;;;;;7.63;6.93;;;;;;;;;;5097814;28;20311;-85
2023/10/18 09:46:05;;;;;;;5.97;5.38;;;;;;;;;;5098754;28;20200;-87
2023/10/18 09:48:38;;;;;;;6.03;5.05;;;;;;;;;;5090395;28;20227;-86
2023/10/18 09:51:07;;;;;;;5.63;5.13;;;;;;;;;;5099764;28;20228;-87
2023/10/18 09:53:36;;;;;;;5.35;4.85;;;;;;;;;;5099236;28;20316;-86
2023/10/18 09:56:04;;;;;;;6.05;5.43;;;;;;;;;;5099500;28;20616;-87
2023/10/18 09:58:41;;;;;;;5.32;4.82;;;;;;;;;;5099754;28;20227;-86
2023/10/18 10:01:14;;;;;;;5.47;4.82;;;;;;;;;;5098859;28;20257;-85
2023/10/18 10:03:50;;;;;;;7.40;5.10;;;;;;;;;;5098916;28;20712;-86
2023/10/18 10:06:21;;;;;;;5.45;4.45;;;;;;;;;;5099183;28;20204;-86
2023/10/18 10:08:50;;;;;;;7.00;5.22;;;;;;;;;;5098697;28;20223;-86
2023/10/18 10:11:19;;;;;;;7.32;5.18;;;;;;;;;;5098478;28;20208;-87
2023/10/18 10:13:51;;;;;;;4.80;4.30;;;;;;;;;;5098505;28;20224;-86
2023/10/18 10:16:20;;;;;;;5.55;5.05;;;;;;;;;;5098602;28;20197;-87
2023/10/18 10:18:49;;;;;;;4.97;4.45;;;;;;;;;;5097181;28;20235;-87
2023/10/18 10:21:21;;;;;;;5.50;4.00;;;;;;;;;;5099039;28;20231;-87
2023/10/18 10:23:55;;;;;;;4.10;3.70;;;;;;;;;;5098733;28;20251;-87
2023/10/18 10:26:27;;;;;;;5.50;4.32;;;;;;;;;;5098268;28;20593;-87
2023/10/18 10:31:51;;;;;;;4.20;3.90;;;;;;;;;;5098775;28;20202;-86
2023/10/18 10:34:26;;;;;;;4.43;4.03;;;;;;;;;;5098016;28;20601;-87
2023/10/18 10:37:05;;;;;;;5.38;4.47;;;;;;;;;;5098703;28;20199;-87
2023/10/18 10:39:35;;;;;;;5.45;4.95;;;;;;;;;;5098600;28;20230;-86
2023/10/18 10:42:19;;;;;;;4.13;3.47;;;;;;;;;;5097305;28;20220;-87
2023/10/18 10:45:02;;;;;;;6.03;3.97;;;;;;;;;;5098576;28;20242;-87
2023/10/18 10:47:31;;;;;;;5.35;3.83;;;;;;;;;;5090309;28;20288;-88
2023/10/18 10:50:07;;;;;;;3.83;3.53;;;;;;;;;;5078440;28;20670;-87
2023/10/18 10:52:40;;;;;;;4.53;4.07;;;;;;;;;;5078874;28;20288;-87
2023/10/18 10:55:21;;;;;;;4.70;3.47;;;;;;;;;;5078669;28;20245;-87
2023/10/18 10:57:49;;;;;;;3.42;3.13;;;;;;;;;;5078847;28;20197;-87
2023/10/18 11:03:29;;;;;;;6.80;4.05;;;;;;;;;;5077140;28;20184;-86
2023/10/18 11:05:58;;;;;;;5.07;4.55;;;;;;;;;;5076643;28;20228;-87
2023/10/18 11:08:28;;;;;;;5.07;4.57;;;;;;;;;;5078269;28;20221;-86
2023/10/18 11:10:57;;;;;;;4.53;3.90;;;;;;;;;;5077587;28;20258;-87
2023/10/18 11:13:26;;;;;;;5.72;4.32;;;;;;;;;;5077417;28;20224;-87
2023/10/18 11:15:56;;;;;;;4.55;4.07;;;;;;;;;;5078961;28;20201;-88
2023/10/18 11:18:34;;;;;;;4.85;4.32;;;;;;;;;;5093968;28;20208;-87
2023/10/18 11:21:06;;;;;;;4.38;3.90;;;;;;;;;;5098732;28;20849;-88
2023/10/18 11:23:37;;;;;;;4.63;3.50;;;;;;;;;;5098738;28;20618;-87
2023/10/18 11:26:09;;;;;;;3.85;3.50;;;;;;;;;;5100050;28;20545;-86
2023/10/18 11:28:38;;;;;;;4.10;3.70;;;;;;;;;;5098821;28;20219;-87
2023/10/18 11:31:07;;;;;;;4.05;3.65;;;;;;;;;;5097440;28;20580;-87
2023/10/18 11:33:46;;;;;;;4.13;3.60;;;;;;;;;;5097925;28;20274;-87
2023/10/18 11:36:18;;;;;;;3.97;3.58;;;;;;;;;;5096903;28;20204;-86
2023/10/18 11:41:34;;;;;;;4.38;3.85;;;;;;;;;;5095618;28;20235;-85
2023/10/18 11:44:06;;;;;;;3.83;3.28;;;;;;;;;;5097130;28;20223;-86
2023/10/18 11:46:50;;;;;;;4.97;4.57;;;;;;;;;;5097070;28;20219;-86
2023/10/18 11:49:20;;;;;;;3.88;3.45;;;;;;;;;;5083276;28;20596;-86
2023/10/18 11:51:50;;;;;;;3.75;3.30;;;;;;;;;;5097898;28;20232;-87
2023/10/18 11:54:32;;;;;;;3.33;3.03;;;;;;;;;;5097493;28;20232;-86
2023/10/18 11:57:00;;;;;;;2.90;2.38;;;;;;;;;;5097177;28;20200;-87
2023/10/18 11:59:29;;;;;;;4.18;3.10;;;;;;;;;;5097318;28;20231;-86
2023/10/18 12:02:04;;;;;;;2.95;2.67;;;;;;;;;;5098246;28;20216;-86
2023/10/18 12:04:37;;;;;;;3.10;2.80;;;;;;;;;;5098109;28;20219;-86
2023/10/18 12:07:08;;;;;;;4.43;2.65;;;;;;;;;;5097849;28;20577;-86
2023/10/18 12:09:44;;;;;;;3.13;2.30;;;;;;;;;;5097917;28;20226;-87
2023/10/18 12:12:14;;;;;;;2.90;2.70;;;;;;;;;;5097552;28;20746;-87
2023/10/18 12:14:42;;;;;;;2.30;2.13;;;;;;;;;;5094140;28;20269;-86
2023/10/18 12:17:12;;;;;;;3.60;2.47;;;;;;;;;;5098336;28;20200;-87
2023/10/18 12:19:40;;;;;;;2.90;2.00;;;;;;;;;;5080106;28;20201;-86
2023/10/18 12:22:09;;;;;;;2.03;1.90;;;;;;;;;;5080347;28;20197;-87
2023/10/18 12:24:38;;;;;;;2.53;2.33;;;;;;;;;;5078344;28;20248;-86
2023/10/18 12:27:18;;;;;;;2.88;2.58;;;;;;;;;;5078680;28;20201;-87
2023/10/18 12:29:46;;;;;;;3.25;2.38;;;;;;;;;;5079448;28;20649;-87
2023/10/18 12:32:23;;;;;;;2.67;2.00;;;;;;;;;;5079326;28;20284;-87
2023/10/18 12:34:56;;;;;;;2.05;1.83;;;;;;;;;;5079458;28;20282;-87
2023/10/18 12:37:25;;;;;;;1.92;1.70;;;;;;;;;;5080619;28;20209;-86
2023/10/18 12:39:58;;;;;;;2.42;2.05;;;;;;;;;;5081666;28;20260;-87
2023/10/18 12:42:32;;;;;;;1.85;1.75;;;;;;;;;;5082181;28;20197;-86
2023/10/18 12:45:08;;;;;;;1.55;1.45;;;;;;;;;;5084511;28;20227;-87
2023/10/18 12:47:37;;;;;;;1.60;1.50;;;;;;;;;;5095007;28;20248;-87
2023/10/18 12:50:06;;;;;;;2.15;1.95;;;;;;;;;;5114366;28;20739;-86
2023/10/18 12:52:42;;;;;;;1.88;1.75;;;;;;;;;;5119725;28;20228;-86
2023/10/18 12:55:32;;;;;;;1.52;1.42;;;;;;;;;;5116882;28;20226;-86
2023/10/18 12:57:59;;;;;;;3.85;2.03;;;;;;;;;;5104295;28;20192;-87
2023/10/18 13:00:34;;;;;;;2.00;1.58;;;;;;;;;;5103246;28;20696;-86
2023/10/18 13:03:21;;;;;;;2.17;1.77;;;;;;;;;;5102186;28;20243;-86
2023/10/18 13:05:52;;;;;;;1.30;1.20;;;;;;;;;;5102752;28;20196;-86
2023/10/18 13:08:26;;;;;;;1.90;1.70;;;;;;;;;;5101027;28;20230;-86
2023/10/18 13:11:37;;;;;;;2.25;1.90;;;;;;;;;;5101236;28;20219;-87
2023/10/18 13:13:47;;;;;;;1.95;1.77;;;;;;;;;;5100027;28;20212;-86
2023/10/18 13:16:16;;;;;;;1.73;1.60;;;;;;;;;;5101785;28;20267;-87
2023/10/18 13:18:47;;;;;;;1.85;1.65;;;;;;;;;;5099162;28;20208;-87
2023/10/18 13:21:16;;;;;;;1.63;1.52;;;;;;;;;;5102609;28;20227;-87
2023/10/18 13:23:46;;;;;;;1.67;1.55;;;;;;;;;;5099539;28;20252;-87
2023/10/18 13:26:18;;;;;;;2.22;1.60;;;;;;;;;;5100951;28;20211;-86
2023/10/18 13:28:52;;;;;;;1.40;1.30;;;;;;;;;;5100544;28;20565;-87
2023/10/18 13:31:30;;;;;;;1.73;1.63;;;;;;;;;;5100485;28;20726;-86
2023/10/18 13:34:01;;;;;;;2.72;1.92;;;;;;;;;;5099575;28;20223;-85
2023/10/18 13:36:28;;;;;;;2.22;1.70;;;;;;;;;;5100407;28;20200;-86
2023/10/18 13:38:56;;;;;;;1.88;1.63;;;;;;;;;;5099038;28;20204;-84
2023/10/18 13:41:23;;;;;;;1.67;1.48;;;;;;;;;;5101764;28;20239;-86
2023/10/18 13:43:54;;;;;;;1.77;1.67;;;;;;;;;;5099768;28;20276;-86
2023/10/18 13:46:23;;;;;;;2.08;1.85;;;;;;;;;;5099241;28;20196;-85
2023/10/18 13:48:51;;;;;;;1.90;1.80;;;;;;;;;;5092015;28;20200;-86
2023/10/18 13:51:20;;;;;;;1.80;1.38;;;;;;;;;;5099420;28;20220;-85
2023/10/18 13:53:52;;;;;;;2.10;1.70;;;;;;;;;;5100138;28;20228;-85
2023/10/18 13:56:21;;;;;;;2.55;1.60;;;;;;;;;;5100081;28;20200;-85
2023/10/18 13:58:48;;;;;;;1.70;1.60;;;;;;;;;;5099624;28;20200;-85
2023/10/18 14:01:17;;;;;;;2.15;1.90;;;;;;;;;;5100340;28;20216;-86
2023/10/18 14:03:47;;;;;;;2.35;2.10;;;;;;;;;;5099701;28;20227;-86
2023/10/18 14:06:15;;;;;;;4.15;1.77;;;;;;;;;;5100416;28;20700;-86
2023/10/18 14:08:45;;;;;;;1.80;1.70;;;;;;;;;;5100049;28;20193;-85
2023/10/18 14:11:14;;;;;;;2.47;2.28;;;;;;;;;;5099539;28;20303;-86
2023/10/18 14:13:43;;;;;;;1.95;1.40;;;;;;;;;;5099635;28;20224;-85
2023/10/18 14:16:12;;;;;;;1.92;1.75;;;;;;;;;;5101495;28;20235;-86
2023/10/18 14:18:42;;;;;;;2.20;1.90;;;;;;;;;;5097992;28;20200;-86
2023/10/18 14:21:13;;;;;;;3.03;1.95;;;;;;;;;;5101228;28;20199;-86
2023/10/18 14:23:45;;;;;;;2.13;1.83;;;;;;;;;;5101001;28;20220;-86
2023/10/18 14:26:14;;;;;;;2.22;2.03;;;;;;;;;;5100600;28;20674;-86
2023/10/18 14:28:41;;;;;;;2.10;1.90;;;;;;;;;;5100997;28;20235;-86
2023/10/18 14:31:12;;;;;;;1.98;1.83;;;;;;;;;;5100578;28;20281;-86
2023/10/18 14:33:40;;;;;;;1.60;1.50;;;;;;;;;;5101393;28;20365;-86
2023/10/18 14:36:09;;;;;;;2.00;1.38;;;;;;;;;;5100881;28;20230;-86
2023/10/18 14:38:36;;;;;;;2.47;1.60;;;;;;;;;;5096893;28;20891;-86
2023/10/18 14:41:08;;;;;;;2.65;1.75;;;;;;;;;;5079957;28;20280;-85
2023/10/18 14:43:36;;;;;;;2.38;2.00;;;;;;;;;;5088061;28;20244;-85
2023/10/18 14:46:03;;;;;;;2.25;2.00;;;;;;;;;;5100272;28;20689;-86
2023/10/18 14:48:32;;;;;;;1.60;1.50;;;;;;;;;;5100263;28;20572;-86
2023/10/18 14:51:03;;;;;;;2.67;2.00;;;;;;;;;;5099727;28;20281;-86
2023/10/18 14:53:31;;;;;;;4.07;1.92;;;;;;;;;;5099883;28;20254;-86
2023/10/18 14:55:58;;;;;;;1.70;1.60;;;;;;;;;;5100230;28;20212;-85
2023/10/18 14:58:29;;;;;;;1.77;1.67;;;;;;;;;;5099953;28;20227;-86
2023/10/18 15:00:56;;;;;;;2.03;1.65;;;;;;;;;;5099756;28;20657;-86
2023/10/18 15:03:24;;;;;;;2.03;1.92;;;;;;;;;;5099977;28;20230;-86
2023/10/18 15:05:53;;;;;;;1.80;1.70;;;;;;;;;;5100360;28;20200;-86
2023/10/18 15:08:22;;;;;;;2.20;2.00;;;;;;;;;;5100691;28;20220;-85
2023/10/18 15:10:50;;;;;;;2.08;1.88;;;;;;;;;;5098316;28;20258;-85
2023/10/18 15:13:17;;;;;;;3.85;2.65;;;;;;;;;;5094721;28;20626;-85
2023/10/18 15:15:46;;;;;;;2.65;2.40;;;;;;;;;;5099924;28;20223;-85
2023/10/18 15:18:14;;;;;;;3.15;2.63;;;;;;;;;;5099804;28;20208;-85
2023/10/18 15:20:43;;;;;;;2.72;2.47;;;;;;;;;;5098887;28;20207;-85
2023/10/18 15:23:12;;;;;;;2.17;2.00;;;;;;;;;;5098373;28;20757;-85